Time;durP1;ratioP1;P1;durP2;ratioP2;P2;SDS_P1;SDS_P2;PMS_P1;PMS_P2;Temp;Humidity;BMP_temperature;BMP_pressure;BME280_temperature;BME280_humidity;BME280_pressure;Samples;Min_cycle;Max_cycle;Signal;HPM_P1;HPM_P2
2023/04/30 00:04:18;;;;;;;20.38;15.15;;;;;;;;;;10546995;28;20420;-83
2023/04/30 00:09:21;;;;;;;19.15;15.00;;;;;;;;;;10545612;28;20423;-83
2023/04/30 00:14:23;;;;;;;20.92;15.27;;;;;;;;;;10543108;28;20408;-84
2023/04/30 00:19:25;;;;;;;19.80;15.27;;;;;;;;;;10543061;28;20783;-84
2023/04/30 00:24:28;;;;;;;20.45;15.23;;;;;;;;;;10542720;28;20430;-83
2023/04/30 00:29:30;;;;;;;20.38;14.90;;;;;;;;;;10549494;28;20941;-84
2023/04/30 00:34:32;;;;;;;20.05;15.35;;;;;;;;;;10550009;28;20412;-83
2023/04/30 00:39:35;;;;;;;22.23;17.05;;;;;;;;;;10551891;28;20481;-84
2023/04/30 00:44:37;;;;;;;22.98;17.13;;;;;;;;;;10554490;28;20422;-84
2023/04/30 00:49:39;;;;;;;24.88;17.10;;;;;;;;;;10554047;28;20511;-84
2023/04/30 00:54:42;;;;;;;21.63;16.87;;;;;;;;;;10555423;28;20413;-84
2023/04/30 00:59:44;;;;;;;23.05;17.00;;;;;;;;;;10551510;28;20479;-84
2023/04/30 01:04:46;;;;;;;22.73;17.33;;;;;;;;;;10551166;28;20426;-84
2023/04/30 01:09:50;;;;;;;21.33;16.70;;;;;;;;;;10552474;28;20403;-83
2023/04/30 01:15:04;;;;;;;24.92;17.20;;;;;;;;;;10551837;28;20398;-84
2023/04/30 01:20:09;;;;;;;23.25;17.20;;;;;;;;;;10550628;28;20404;-84
2023/04/30 01:25:42;;;;;;;23.53;17.13;;;;;;;;;;10549201;28;20503;-84
2023/04/30 01:30:45;;;;;;;24.33;17.77;;;;;;;;;;10552837;28;20402;-84
2023/04/30 01:36:19;;;;;;;21.63;17.37;;;;;;;;;;10551835;28;20396;-83
2023/04/30 01:41:31;;;;;;;26.55;17.25;;;;;;;;;;10551493;28;20417;-85
2023/04/30 01:46:34;;;;;;;22.90;17.88;;;;;;;;;;10551235;28;21074;-85
2023/04/30 01:51:40;;;;;;;22.13;16.98;;;;;;;;;;10549864;28;20414;-84
2023/04/30 01:56:47;;;;;;;22.98;17.83;;;;;;;;;;10552719;28;20882;-84
2023/04/30 02:01:50;;;;;;;24.35;18.33;;;;;;;;;;10552450;28;20404;-85
2023/04/30 02:06:52;;;;;;;23.42;17.92;;;;;;;;;;10551310;28;20425;-85
2023/04/30 02:11:56;;;;;;;23.92;18.08;;;;;;;;;;10549774;28;20410;-85
2023/04/30 02:16:59;;;;;;;22.90;17.63;;;;;;;;;;10553149;28;20459;-84
2023/04/30 02:22:01;;;;;;;25.00;19.23;;;;;;;;;;10553154;28;20410;-84
2023/04/30 02:27:03;;;;;;;25.58;19.17;;;;;;;;;;10549733;28;20431;-84
2023/04/30 02:32:06;;;;;;;25.02;19.35;;;;;;;;;;10552522;28;20443;-84
2023/04/30 02:37:08;;;;;;;24.37;18.67;;;;;;;;;;10548375;28;20836;-84
2023/04/30 02:42:10;;;;;;;25.25;19.48;;;;;;;;;;10551199;28;20425;-84
2023/04/30 02:47:13;;;;;;;24.80;18.95;;;;;;;;;;10550161;28;20396;-84
2023/04/30 02:52:15;;;;;;;25.90;19.27;;;;;;;;;;10548715;28;20440;-84
2023/04/30 02:57:17;;;;;;;22.63;18.52;;;;;;;;;;10547953;28;20408;-85
2023/04/30 03:02:22;;;;;;;22.15;17.48;;;;;;;;;;10549410;28;20431;-84
2023/04/30 03:07:24;;;;;;;22.37;18.03;;;;;;;;;;10554868;28;20775;-84
2023/04/30 03:12:25;;;;;;;22.88;17.08;;;;;;;;;;10545150;28;20400;-84
2023/04/30 03:17:29;;;;;;;22.58;16.27;;;;;;;;;;10550301;28;20442;-84
2023/04/30 03:22:30;;;;;;;21.27;15.53;;;;;;;;;;10547802;28;20791;-84
2023/04/30 03:27:32;;;;;;;19.67;15.93;;;;;;;;;;10547273;28;20404;-84
2023/04/30 03:32:35;;;;;;;21.02;15.65;;;;;;;;;;10548582;28;20424;-84
2023/04/30 03:37:37;;;;;;;22.30;15.93;;;;;;;;;;10552110;28;20409;-84
2023/04/30 03:42:39;;;;;;;20.23;16.00;;;;;;;;;;10547684;28;20420;-85
2023/04/30 03:47:43;;;;;;;22.15;17.00;;;;;;;;;;10541255;28;20960;-84
2023/04/30 03:52:45;;;;;;;19.85;15.50;;;;;;;;;;10547802;28;20411;-84
2023/04/30 03:57:47;;;;;;;19.55;15.35;;;;;;;;;;10545721;28;20408;-84
2023/04/30 04:02:50;;;;;;;18.83;14.30;;;;;;;;;;10549410;28;20414;-84
2023/04/30 04:07:52;;;;;;;19.35;14.60;;;;;;;;;;10554199;28;20471;-84
2023/04/30 04:12:54;;;;;;;17.87;14.77;;;;;;;;;;10555916;28;20770;-84
2023/04/30 04:17:57;;;;;;;15.95;12.05;;;;;;;;;;10555916;28;20497;-84
2023/04/30 04:22:59;;;;;;;13.20;10.63;;;;;;;;;;10558624;28;20515;-84
2023/04/30 04:28:01;;;;;;;13.60;10.23;;;;;;;;;;10554535;28;20457;-83
2023/04/30 04:33:04;;;;;;;14.05;10.55;;;;;;;;;;10550451;28;20451;-84
2023/04/30 04:38:07;;;;;;;11.23;9.27;;;;;;;;;;10559168;28;20397;-84
2023/04/30 04:43:09;;;;;;;10.85;9.73;;;;;;;;;;10554233;28;20417;-84
2023/04/30 04:48:12;;;;;;;12.70;9.33;;;;;;;;;;10547679;28;20491;-84
2023/04/30 04:53:14;;;;;;;12.52;8.93;;;;;;;;;;10550764;28;20820;-84
2023/04/30 04:58:15;;;;;;;11.07;8.40;;;;;;;;;;10549840;28;20580;-84
2023/04/30 05:03:19;;;;;;;10.50;8.40;;;;;;;;;;10546908;28;20423;-84
2023/04/30 05:08:21;;;;;;;11.18;8.55;;;;;;;;;;10549356;28;20485;-84
2023/04/30 05:13:23;;;;;;;10.23;8.63;;;;;;;;;;10553081;28;20405;-84
2023/04/30 05:18:26;;;;;;;10.70;8.97;;;;;;;;;;10552395;28;20867;-84
2023/04/30 05:23:28;;;;;;;12.38;8.80;;;;;;;;;;10553843;28;20418;-84
2023/04/30 05:28:30;;;;;;;12.27;9.33;;;;;;;;;;10552739;28;20502;-85
2023/04/30 05:33:33;;;;;;;11.57;9.30;;;;;;;;;;10559637;28;20486;-85
2023/04/30 05:38:35;;;;;;;12.10;9.03;;;;;;;;;;10550131;28;20432;-85
2023/04/30 05:43:37;;;;;;;11.73;9.23;;;;;;;;;;10548194;28;20795;-86
2023/04/30 05:48:40;;;;;;;13.23;10.40;;;;;;;;;;10553665;28;20400;-86
2023/04/30 05:53:42;;;;;;;15.10;12.02;;;;;;;;;;10553058;28;20761;-86
2023/04/30 05:58:44;;;;;;;15.38;12.10;;;;;;;;;;10549875;28;20442;-86
2023/04/30 06:03:47;;;;;;;17.10;12.90;;;;;;;;;;10547560;28;20430;-85
2023/04/30 06:08:49;;;;;;;15.68;11.98;;;;;;;;;;10548567;28;20392;-86
2023/04/30 06:13:50;;;;;;;14.25;11.32;;;;;;;;;;10553392;28;20424;-85
2023/04/30 06:18:54;;;;;;;14.40;10.70;;;;;;;;;;10547936;28;20408;-85
2023/04/30 06:23:55;;;;;;;13.80;10.45;;;;;;;;;;10547584;28;20414;-85
2023/04/30 06:28:57;;;;;;;15.30;10.10;;;;;;;;;;10551847;28;20402;-85
2023/04/30 06:34:00;;;;;;;14.43;10.18;;;;;;;;;;10547802;28;20509;-84
2023/04/30 06:39:04;;;;;;;14.00;10.45;;;;;;;;;;10549479;28;20396;-85
2023/04/30 06:44:05;;;;;;;14.97;10.83;;;;;;;;;;10554997;28;20510;-86
2023/04/30 06:49:09;;;;;;;13.23;10.25;;;;;;;;;;10546080;28;20975;-85
2023/04/30 06:54:11;;;;;;;15.90;10.93;;;;;;;;;;10550495;28;20400;-85
2023/04/30 06:59:12;;;;;;;11.60;9.43;;;;;;;;;;10551578;28;20467;-85
2023/04/30 07:04:15;;;;;;;13.32;9.50;;;;;;;;;;10547594;28;20495;-85
2023/04/30 07:09:17;;;;;;;12.38;9.18;;;;;;;;;;10548523;28;20392;-85
2023/04/30 07:14:20;;;;;;;10.87;9.30;;;;;;;;;;10554154;28;20774;-85
2023/04/30 07:19:25;;;;;;;13.50;10.10;;;;;;;;;;10548973;28;20761;-85
2023/04/30 07:24:27;;;;;;;11.47;9.77;;;;;;;;;;10551714;28;20415;-85
2023/04/30 07:29:29;;;;;;;11.45;9.55;;;;;;;;;;10547934;28;20486;-85
2023/04/30 07:34:32;;;;;;;12.10;10.02;;;;;;;;;;10547753;28;20400;-85
2023/04/30 07:39:35;;;;;;;12.63;10.33;;;;;;;;;;10554241;28;20397;-85
2023/04/30 07:44:37;;;;;;;11.70;10.17;;;;;;;;;;10549433;28;20496;-86
2023/04/30 07:49:40;;;;;;;13.90;10.50;;;;;;;;;;10551793;28;20398;-86
2023/04/30 07:54:42;;;;;;;12.00;10.13;;;;;;;;;;10554767;28;20398;-86
2023/04/30 07:59:44;;;;;;;16.83;11.57;;;;;;;;;;10556585;28;20440;-85
2023/04/30 08:04:47;;;;;;;16.70;11.75;;;;;;;;;;10557078;28;20418;-86
2023/04/30 08:09:49;;;;;;;15.75;11.73;;;;;;;;;;10555818;28;20405;-85
2023/04/30 08:14:59;;;;;;;13.05;11.63;;;;;;;;;;10552248;28;20407;-85
2023/04/30 08:20:04;;;;;;;14.83;11.50;;;;;;;;;;10555926;28;20390;-86
2023/04/30 08:25:06;;;;;;;13.48;11.55;;;;;;;;;;10549569;28;20419;-86
2023/04/30 08:30:08;;;;;;;14.32;11.20;;;;;;;;;;10555341;28;20396;-85
2023/04/30 08:35:12;;;;;;;12.93;11.17;;;;;;;;;;10553805;28;20420;-85
2023/04/30 08:40:15;;;;;;;14.05;11.57;;;;;;;;;;10543369;28;20403;-86
2023/04/30 08:45:19;;;;;;;14.57;11.73;;;;;;;;;;10550563;28;20482;-85
2023/04/30 08:50:22;;;;;;;16.23;12.00;;;;;;;;;;10547446;28;20415;-85
2023/04/30 08:55:25;;;;;;;13.38;11.57;;;;;;;;;;10552763;27;20435;-85
2023/04/30 09:00:27;;;;;;;15.25;11.93;;;;;;;;;;10553260;28;20844;-85
2023/04/30 09:05:30;;;;;;;15.10;12.13;;;;;;;;;;10544428;28;20416;-81
2023/04/30 09:10:33;;;;;;;14.73;12.25;;;;;;;;;;10545888;28;20410;-85
2023/04/30 09:15:36;;;;;;;14.70;12.17;;;;;;;;;;10540318;28;20427;-85
2023/04/30 09:20:55;;;;;;;14.50;11.60;;;;;;;;;;10538793;28;20400;-85
2023/04/30 09:25:57;;;;;;;16.42;12.55;;;;;;;;;;10547106;28;20891;-85
2023/04/30 09:30:59;;;;;;;17.93;13.33;;;;;;;;;;10552681;28;20409;-85
2023/04/30 09:36:09;;;;;;;14.95;13.05;;;;;;;;;;10550946;28;20966;-84
2023/04/30 09:41:22;;;;;;;14.13;11.87;;;;;;;;;;10549791;28;20390;-85
2023/04/30 09:46:31;;;;;;;17.17;12.35;;;;;;;;;;10548196;28;20422;-85
2023/04/30 09:51:35;;;;;;;15.93;12.53;;;;;;;;;;10546686;28;20493;-85
2023/04/30 09:56:39;;;;;;;14.90;12.57;;;;;;;;;;10553745;28;20433;-85
2023/04/30 10:01:41;;;;;;;16.17;12.32;;;;;;;;;;10546114;28;20431;-84
2023/04/30 10:06:44;;;;;;;14.63;11.00;;;;;;;;;;10550041;28;20515;-85
2023/04/30 10:11:47;;;;;;;13.33;9.93;;;;;;;;;;10546784;28;20938;-86
2023/04/30 10:16:56;;;;;;;13.77;10.85;;;;;;;;;;10545872;28;20483;-83
2023/04/30 10:22:01;;;;;;;13.17;10.83;;;;;;;;;;10550184;28;20420;-85
2023/04/30 10:27:03;;;;;;;13.77;10.38;;;;;;;;;;10543493;28;20416;-85
2023/04/30 10:32:06;;;;;;;11.10;9.40;;;;;;;;;;10528351;28;20731;-85
2023/04/30 10:37:15;;;;;;;9.57;8.57;;;;;;;;;;10536195;28;20874;-84
2023/04/30 10:42:17;;;;;;;12.38;8.90;;;;;;;;;;10537961;28;20823;-85
2023/04/30 10:47:20;;;;;;;11.45;8.70;;;;;;;;;;10533675;28;20434;-85
2023/04/30 10:52:29;;;;;;;9.65;7.93;;;;;;;;;;10534078;28;20400;-85
2023/04/30 10:57:31;;;;;;;10.40;8.25;;;;;;;;;;10533908;28;20403;-85
2023/04/30 11:02:39;;;;;;;9.77;7.72;;;;;;;;;;10537838;28;20446;-85
2023/04/30 11:07:50;;;;;;;8.55;7.10;;;;;;;;;;10526845;28;20419;-85
2023/04/30 11:12:54;;;;;;;5.97;5.38;;;;;;;;;;10534495;28;20491;-82
2023/04/30 11:17:57;;;;;;;7.10;4.97;;;;;;;;;;10520253;28;20409;-85
2023/04/30 11:23:13;;;;;;;7.90;4.67;;;;;;;;;;10532051;28;20408;-82
2023/04/30 11:28:17;;;;;;;4.60;4.10;;;;;;;;;;10533378;28;21016;-83
2023/04/30 11:33:20;;;;;;;3.55;3.25;;;;;;;;;;10534433;28;20455;-83
2023/04/30 11:38:26;;;;;;;4.67;3.80;;;;;;;;;;10528001;28;20499;-85
2023/04/30 11:43:30;;;;;;;5.40;4.33;;;;;;;;;;10534255;28;20445;-85
2023/04/30 11:48:33;;;;;;;4.18;3.78;;;;;;;;;;10517682;28;20495;-85
2023/04/30 11:53:36;;;;;;;4.95;3.88;;;;;;;;;;10538161;28;20741;-85
2023/04/30 11:58:39;;;;;;;2.87;2.40;;;;;;;;;;10533784;28;20478;-84
2023/04/30 12:03:42;;;;;;;4.40;2.83;;;;;;;;;;10544591;28;20894;-84
2023/04/30 12:08:46;;;;;;;3.23;2.40;;;;;;;;;;10538532;28;20795;-85
2023/04/30 12:13:51;;;;;;;2.50;1.95;;;;;;;;;;10536727;28;20402;-84
2023/04/30 12:18:54;;;;;;;2.25;2.00;;;;;;;;;;10539198;28;20399;-85
2023/04/30 12:23:57;;;;;;;3.13;2.80;;;;;;;;;;10541072;28;20758;-84
2023/04/30 12:28:59;;;;;;;2.60;2.00;;;;;;;;;;10547022;28;20501;-83
2023/04/30 12:34:05;;;;;;;2.20;2.00;;;;;;;;;;10546946;28;20415;-83
2023/04/30 12:39:10;;;;;;;2.70;2.30;;;;;;;;;;10546592;28;20400;-84
2023/04/30 12:44:17;;;;;;;2.97;2.13;;;;;;;;;;10549123;28;20854;-83
2023/04/30 12:49:24;;;;;;;3.10;1.98;;;;;;;;;;10550334;28;20509;-84
2023/04/30 12:54:29;;;;;;;1.80;1.60;;;;;;;;;;10546035;28;20417;-85
2023/04/30 12:59:32;;;;;;;3.22;1.95;;;;;;;;;;10542327;28;20795;-83
2023/04/30 13:04:34;;;;;;;1.92;1.83;;;;;;;;;;10542160;28;20420;-84
2023/04/30 13:09:38;;;;;;;2.90;2.10;;;;;;;;;;10539408;28;20416;-84
2023/04/30 13:14:40;;;;;;;6.78;6.05;;;;;;;;;;10540879;28;20502;-84
2023/04/30 13:19:42;;;;;;;8.48;6.72;;;;;;;;;;10546197;28;20448;-85
2023/04/30 13:24:45;;;;;;;7.97;6.70;;;;;;;;;;10547357;28;20424;-84
2023/04/30 13:29:47;;;;;;;9.63;7.17;;;;;;;;;;10544003;28;20393;-84
2023/04/30 13:34:51;;;;;;;9.00;7.60;;;;;;;;;;10542768;28;21499;-84
2023/04/30 13:39:54;;;;;;;9.20;7.77;;;;;;;;;;10543535;28;20420;-85
2023/04/30 13:44:56;;;;;;;10.13;6.88;;;;;;;;;;10541646;28;20417;-85
2023/04/30 13:49:58;;;;;;;2.00;1.80;;;;;;;;;;10535935;22;20483;-86
2023/04/30 13:55:04;;;;;;;3.10;2.50;;;;;;;;;;10470296;28;20414;-85
2023/04/30 14:00:08;;;;;;;5.43;2.30;;;;;;;;;;10467357;28;20428;-86
2023/04/30 14:05:10;;;;;;;3.27;2.57;;;;;;;;;;10453919;28;20483;-85
2023/04/30 14:10:13;;;;;;;3.47;2.70;;;;;;;;;;10478468;28;20416;-85
2023/04/30 14:15:16;;;;;;;4.15;2.22;;;;;;;;;;10465214;28;20935;-83
2023/04/30 14:20:18;;;;;;;3.92;2.22;;;;;;;;;;10467195;28;20418;-85
2023/04/30 14:25:21;;;;;;;4.78;2.35;;;;;;;;;;10468948;28;20429;-84
2023/04/30 14:30:24;;;;;;;2.83;2.33;;;;;;;;;;10472827;28;21122;-84
2023/04/30 14:35:27;;;;;;;3.07;2.33;;;;;;;;;;10465304;28;20414;-84
2023/04/30 14:40:30;;;;;;;2.85;2.58;;;;;;;;;;10469640;28;20999;-85
2023/04/30 14:45:33;;;;;;;2.83;2.40;;;;;;;;;;10460406;28;20445;-85
2023/04/30 14:50:35;;;;;;;3.58;2.70;;;;;;;;;;10462147;28;20419;-85
2023/04/30 14:55:39;;;;;;;3.40;2.50;;;;;;;;;;10471027;28;20418;-85
2023/04/30 15:00:41;;;;;;;2.50;2.30;;;;;;;;;;10468891;28;20409;-85
2023/04/30 15:05:43;;;;;;;2.75;2.45;;;;;;;;;;10466176;28;20426;-85
2023/04/30 15:10:46;;;;;;;2.13;1.92;;;;;;;;;;10455017;28;20570;-84
2023/04/30 15:15:48;;;;;;;2.88;2.10;;;;;;;;;;10463180;28;20420;-85
2023/04/30 15:20:50;;;;;;;2.67;2.37;;;;;;;;;;10474447;28;21204;-85
2023/04/30 15:25:54;;;;;;;2.70;2.00;;;;;;;;;;10463062;28;20858;-84
2023/04/30 15:30:56;;;;;;;3.05;2.17;;;;;;;;;;10452456;28;20779;-84
2023/04/30 15:35:58;;;;;;;2.42;2.17;;;;;;;;;;10468372;28;20494;-84
2023/04/30 15:41:01;;;;;;;3.10;2.03;;;;;;;;;;10465480;28;20413;-85
2023/04/30 15:46:03;;;;;;;4.97;2.30;;;;;;;;;;10464818;28;20926;-85
2023/04/30 15:51:05;;;;;;;3.15;2.10;;;;;;;;;;10456823;28;20509;-85
2023/04/30 15:56:09;;;;;;;2.80;2.40;;;;;;;;;;10469107;28;20414;-85
2023/04/30 16:01:11;;;;;;;2.70;2.40;;;;;;;;;;10467956;28;20489;-84
2023/04/30 16:06:14;;;;;;;3.13;2.43;;;;;;;;;;10477405;28;20897;-85
2023/04/30 16:11:18;;;;;;;2.77;2.40;;;;;;;;;;10465875;28;20507;-86
2023/04/30 16:16:20;;;;;;;2.95;2.47;;;;;;;;;;10470872;28;20417;-85
2023/04/30 16:21:22;;;;;;;3.17;2.60;;;;;;;;;;10464632;28;20416;-85
2023/04/30 16:26:25;;;;;;;2.95;2.38;;;;;;;;;;10474593;28;20949;-84
2023/04/30 16:31:27;;;;;;;3.22;2.60;;;;;;;;;;10469304;28;20418;-84
2023/04/30 16:36:29;;;;;;;5.68;3.20;;;;;;;;;;10471263;28;20410;-83
2023/04/30 16:41:33;;;;;;;3.57;2.90;;;;;;;;;;10462416;28;20416;-84
2023/04/30 16:46:35;;;;;;;3.05;2.85;;;;;;;;;;10465695;28;20801;-84
2023/04/30 16:51:36;;;;;;;3.10;2.80;;;;;;;;;;10469659;28;20438;-84
2023/04/30 16:56:40;;;;;;;3.40;3.10;;;;;;;;;;10470082;28;20426;-84
2023/04/30 17:01:41;;;;;;;5.28;4.25;;;;;;;;;;10465849;28;20497;-84
2023/04/30 17:06:43;;;;;;;5.70;4.88;;;;;;;;;;10466347;28;20418;-83
2023/04/30 17:11:47;;;;;;;5.90;4.70;;;;;;;;;;10460590;28;20769;-83
2023/04/30 17:16:49;;;;;;;7.63;4.78;;;;;;;;;;10467974;28;20418;-84
2023/04/30 17:21:51;;;;;;;6.30;5.40;;;;;;;;;;10459305;28;20829;-83
2023/04/30 17:26:54;;;;;;;5.80;5.20;;;;;;;;;;10478566;28;20431;-83
2023/04/30 17:31:56;;;;;;;6.65;5.82;;;;;;;;;;10476804;28;20405;-83
2023/04/30 17:36:58;;;;;;;7.25;5.50;;;;;;;;;;10475417;28;20406;-83
2023/04/30 17:42:02;;;;;;;7.00;6.22;;;;;;;;;;10476309;28;20416;-82
2023/04/30 17:47:05;;;;;;;9.43;5.95;;;;;;;;;;10470305;28;20435;-84
2023/04/30 17:52:07;;;;;;;7.70;6.85;;;;;;;;;;10472214;28;20417;-84
2023/04/30 17:57:10;;;;;;;5.97;5.20;;;;;;;;;;10474272;28;21348;-84
2023/04/30 18:02:12;;;;;;;6.57;5.60;;;;;;;;;;10464473;28;20416;-84
2023/04/30 18:07:14;;;;;;;6.45;5.80;;;;;;;;;;10465064;28;21076;-84
2023/04/30 18:12:17;;;;;;;6.25;5.65;;;;;;;;;;10464110;28;20404;-85
2023/04/30 18:17:19;;;;;;;6.63;5.97;;;;;;;;;;10470443;28;20447;-85
2023/04/30 18:22:21;;;;;;;9.33;6.80;;;;;;;;;;10480783;28;20912;-83
2023/04/30 18:27:24;;;;;;;7.22;6.53;;;;;;;;;;10473883;28;20863;-84
2023/04/30 18:32:26;;;;;;;7.95;6.60;;;;;;;;;;10468552;28;20493;-84
2023/04/30 18:37:27;;;;;;;7.63;6.73;;;;;;;;;;10463608;28;20416;-85
2023/04/30 18:42:32;;;;;;;8.65;7.47;;;;;;;;;;10460112;28;20792;-84
2023/04/30 18:47:34;;;;;;;8.87;7.23;;;;;;;;;;10474369;28;20546;-84
2023/04/30 18:52:36;;;;;;;9.93;7.77;;;;;;;;;;10467086;28;20536;-84
2023/04/30 18:57:39;;;;;;;10.23;9.23;;;;;;;;;;10467861;28;20424;-85
2023/04/30 19:02:41;;;;;;;9.52;7.88;;;;;;;;;;10458708;28;20852;-84
2023/04/30 19:07:43;;;;;;;9.18;8.18;;;;;;;;;;10466953;28;20429;-84
2023/04/30 19:12:47;;;;;;;9.52;8.30;;;;;;;;;;10463475;28;20792;-84
2023/04/30 19:17:48;;;;;;;10.43;8.23;;;;;;;;;;10464183;28;20414;-84
2023/04/30 19:22:50;;;;;;;10.80;8.90;;;;;;;;;;10452576;28;20989;-84
2023/04/30 19:27:53;;;;;;;10.37;9.10;;;;;;;;;;10460064;28;20458;-85
2023/04/30 19:32:55;;;;;;;11.80;10.00;;;;;;;;;;10459660;28;20443;-83
2023/04/30 19:37:57;;;;;;;11.35;9.85;;;;;;;;;;10461542;28;20412;-84
2023/04/30 19:43:00;;;;;;;12.40;9.60;;;;;;;;;;10462366;28;20590;-84
2023/04/30 19:48:02;;;;;;;11.32;9.13;;;;;;;;;;10461872;28;20422;-83
2023/04/30 19:53:03;;;;;;;12.60;9.90;;;;;;;;;;10463695;28;20529;-85
2023/04/30 19:58:07;;;;;;;11.80;9.75;;;;;;;;;;10463116;28;20424;-84
2023/04/30 20:03:09;;;;;;;11.47;10.27;;;;;;;;;;10457440;28;20510;-85
2023/04/30 20:08:11;;;;;;;13.02;11.65;;;;;;;;;;10457871;28;21001;-85
2023/04/30 20:13:14;;;;;;;13.88;11.98;;;;;;;;;;10452868;28;20436;-84
2023/04/30 20:18:16;;;;;;;16.52;12.38;;;;;;;;;;10455286;28;20434;-85
2023/04/30 20:23:19;;;;;;;14.30;12.68;;;;;;;;;;10456329;28;20421;-84
2023/04/30 20:28:22;;;;;;;13.70;12.17;;;;;;;;;;10463697;28;22031;-85
2023/04/30 20:33:25;;;;;;;14.30;12.68;;;;;;;;;;10462847;28;20808;-85
2023/04/30 20:38:27;;;;;;;15.55;12.23;;;;;;;;;;10466822;28;20413;-85
2023/04/30 20:43:30;;;;;;;14.00;11.82;;;;;;;;;;10466441;28;20421;-85
2023/04/30 20:48:32;;;;;;;13.40;11.13;;;;;;;;;;10470909;28;20526;-85
2023/04/30 20:53:34;;;;;;;13.63;11.38;;;;;;;;;;10467793;28;20419;-85
2023/04/30 20:58:37;;;;;;;14.98;10.80;;;;;;;;;;10463604;28;20473;-84
2023/04/30 21:03:39;;;;;;;12.68;10.82;;;;;;;;;;10470526;28;20425;-85
2023/04/30 21:08:41;;;;;;;13.23;10.88;;;;;;;;;;10463012;28;20518;-85
2023/04/30 21:13:44;;;;;;;12.55;10.40;;;;;;;;;;10470056;28;20415;-86
2023/04/30 21:18:47;;;;;;;12.63;10.32;;;;;;;;;;10468852;28;20492;-85
2023/04/30 21:23:49;;;;;;;10.85;9.60;;;;;;;;;;10467709;28;20455;-85
2023/04/30 21:28:52;;;;;;;11.13;8.82;;;;;;;;;;10466227;28;20421;-85
2023/04/30 21:33:54;;;;;;;8.55;7.65;;;;;;;;;;10477279;28;20421;-85
2023/04/30 21:38:57;;;;;;;9.57;7.78;;;;;;;;;;10467293;28;20506;-85
2023/04/30 21:44:00;;;;;;;8.53;6.97;;;;;;;;;;10468299;28;20445;-85
2023/04/30 21:49:02;;;;;;;7.10;6.40;;;;;;;;;;10462257;28;20424;-85
2023/04/30 21:54:04;;;;;;;6.27;5.33;;;;;;;;;;10467282;28;20512;-85
2023/04/30 21:59:07;;;;;;;5.03;4.38;;;;;;;;;;10467483;28;20495;-85
2023/04/30 22:04:09;;;;;;;5.33;3.13;;;;;;;;;;10473720;28;20422;-85
2023/04/30 22:09:12;;;;;;;3.50;2.97;;;;;;;;;;10474606;28;20961;-85
2023/04/30 22:14:15;;;;;;;3.40;3.03;;;;;;;;;;10477365;28;20501;-84
2023/04/30 22:19:17;;;;;;;4.55;3.00;;;;;;;;;;10481676;28;20402;-84
2023/04/30 22:24:19;;;;;;;4.50;3.35;;;;;;;;;;10476668;28;20529;-85
2023/04/30 22:29:22;;;;;;;3.63;3.23;;;;;;;;;;10484104;28;20484;-85
2023/04/30 22:34:24;;;;;;;3.58;3.20;;;;;;;;;;10481977;28;20406;-86
2023/04/30 22:39:26;;;;;;;4.40;3.60;;;;;;;;;;10488997;28;20539;-86
2023/04/30 22:44:29;;;;;;;4.17;3.10;;;;;;;;;;10478678;28;20438;-86
2023/04/30 22:49:32;;;;;;;3.30;2.53;;;;;;;;;;10474399;28;20421;-85
2023/04/30 22:54:34;;;;;;;3.38;2.88;;;;;;;;;;10468374;28;20419;-86
2023/04/30 22:59:38;;;;;;;3.10;2.33;;;;;;;;;;10448921;28;20505;-85
2023/04/30 23:04:40;;;;;;;3.00;2.50;;;;;;;;;;10467149;28;20776;-85
2023/04/30 23:09:41;;;;;;;3.07;2.50;;;;;;;;;;10448887;28;20423;-85
2023/04/30 23:14:45;;;;;;;2.95;2.60;;;;;;;;;;10473157;28;20471;-85
2023/04/30 23:19:46;;;;;;;3.63;2.90;;;;;;;;;;10468685;28;20415;-85
2023/04/30 23:24:48;;;;;;;3.77;3.20;;;;;;;;;;10471100;28;20410;-85
2023/04/30 23:29:51;;;;;;;3.90;2.80;;;;;;;;;;10468334;28;21153;-85
2023/04/30 23:34:53;;;;;;;2.95;2.75;;;;;;;;;;10470277;28;21218;-85
2023/04/30 23:39:55;;;;;;;4.43;2.90;;;;;;;;;;10468385;28;20406;-86
2023/04/30 23:44:58;;;;;;;3.40;2.90;;;;;;;;;;10469903;28;20875;-85
2023/04/30 23:50:00;;;;;;;3.55;3.22;;;;;;;;;;10468664;28;20425;-85
2023/04/30 23:55:02;;;;;;;4.40;3.20;;;;;;;;;;10469834;28;20403;-85
